DAL856 CYYT-EGLL
Flight info
| Callsign | DAL856 |
|---|---|
| Flight time | N/A |
| Altitude | 35000 |
| Route | YYT DCT NICSO DCT 48N050W/M083F360 50N040W 52N030W 54N020W DCT DOGAL DCT BEXET/N0471F370 DCT ENJEX DCT AVZAC DCT INFEC DCT JETZI DCT AMFUL DCT ORZEB/N0434F230 P2 SIRIC |
| Aircraft | A333/H-SDE3GHIJ2J3J5M1RVWXY/LB2D1 |
Departure
| Time | 2026-04-25 16:53 |
|---|---|
| Airport | St. John's International Airport (CYYT) |
Arrival
| Time | N/A |
|---|---|
| Airport | London Heathrow Airport (EGLL) |
| Time | Latitude | Longitude | Altitude | Speed | Heading |
|---|---|---|---|---|---|
| 2026-04-25 16:24 | 47.61389 | -52.74247 | 480 ft | 0 kts | 207° |
| 2026-04-25 16:39 | 47.61394 | -52.74243 | 480 ft | 2 kts | 207° |
| 2026-04-25 16:39 | 47.61408 | -52.74230 | 472 ft | 2 kts | 220° |
| 2026-04-25 16:39 | 47.61417 | -52.74217 | 472 ft | 2 kts | 231° |
| 2026-04-25 16:39 | 47.61426 | -52.74197 | 472 ft | 2 kts | 252° |
| 2026-04-25 16:40 | 47.61429 | -52.74173 | 472 ft | 2 kts | 273° |
| 2026-04-25 16:40 | 47.61426 | -52.74149 | 472 ft | 2 kts | 288° |
| 2026-04-25 16:40 | 47.61422 | -52.74132 | 471 ft | 1 kts | 295° |
| 2026-04-25 16:40 | 47.61421 | -52.74129 | 471 ft | 0 kts | 295° |
| 2026-04-25 16:41 | 47.61422 | -52.74131 | 471 ft | 0 kts | 295° |
| 2026-04-25 16:41 | 47.61423 | -52.74134 | 471 ft | 1 kts | 295° |
| 2026-04-25 16:41 | 47.61423 | -52.74135 | 471 ft | 0 kts | 295° |
| 2026-04-25 16:42 | 47.61425 | -52.74140 | 471 ft | 4 kts | 295° |
| 2026-04-25 16:43 | 47.61456 | -52.74247 | 473 ft | 13 kts | 293° |
| 2026-04-25 16:43 | 47.61501 | -52.74342 | 474 ft | 5 kts | 345° |
| 2026-04-25 16:43 | 47.61540 | -52.74309 | 474 ft | 9 kts | 49° |
| 2026-04-25 16:43 | 47.61609 | -52.74195 | 473 ft | 21 kts | 48° |
| 2026-04-25 16:44 | 47.61719 | -52.74076 | 474 ft | 13 kts | 353° |
| 2026-04-25 16:44 | 47.61804 | -52.74171 | 478 ft | 21 kts | 319° |
| 2026-04-25 16:44 | 47.61947 | -52.74349 | 477 ft | 32 kts | 320° |
| 2026-04-25 16:44 | 47.62138 | -52.74593 | 483 ft | 40 kts | 319° |
| 2026-04-25 16:45 | 47.62362 | -52.74883 | 480 ft | 35 kts | 318° |
| 2026-04-25 16:45 | 47.62395 | -52.74927 | 482 ft | 0 kts | 317° |
| 2026-04-25 16:49 | 47.62414 | -52.74954 | 479 ft | 8 kts | 316° |
| 2026-04-25 16:49 | 47.62458 | -52.75044 | 481 ft | 14 kts | 289° |
| 2026-04-25 16:49 | 47.62456 | -52.75200 | 484 ft | 18 kts | 265° |
| 2026-04-25 16:49 | 47.62445 | -52.75429 | 482 ft | 26 kts | 266° |
| 2026-04-25 16:50 | 47.62434 | -52.75719 | 483 ft | 30 kts | 267° |
| 2026-04-25 16:50 | 47.62419 | -52.76055 | 484 ft | 35 kts | 265° |
| 2026-04-25 16:50 | 47.62398 | -52.76433 | 495 ft | 39 kts | 265° |
| 2026-04-25 16:50 | 47.62364 | -52.76823 | 488 ft | 33 kts | 240° |
| 2026-04-25 16:51 | 47.62309 | -52.77088 | 486 ft | 18 kts | 312° |
| 2026-04-25 16:51 | 47.62365 | -52.77085 | 486 ft | 5 kts | 58° |
| 2026-04-25 16:51 | 47.62367 | -52.77072 | 484 ft | 0 kts | 83° |
| 2026-04-25 16:52 | 47.62385 | -52.76832 | 484 ft | 56 kts | 85° |
| 2026-04-25 16:52 | 47.62421 | -52.75963 | 486 ft | 113 kts | 87° |
| 2026-04-25 16:53 | 47.62507 | -52.72967 | 1101 ft | 162 kts | 82° |
| 2026-04-25 16:53 | 47.62482 | -52.71330 | 1959 ft | 158 kts | 82° |
| 2026-04-25 16:53 | 47.62430 | -52.69583 | 2325 ft | 184 kts | 83° |
| 2026-04-25 16:54 | 47.62399 | -52.67564 | 2499 ft | 209 kts | 83° |
| 2026-04-25 16:54 | 47.62391 | -52.65281 | 2778 ft | 234 kts | 83° |
| 2026-04-25 16:54 | 47.62406 | -52.62795 | 3258 ft | 246 kts | 83° |
| 2026-04-25 16:54 | 47.62412 | -52.60242 | 3992 ft | 249 kts | 83° |
| 2026-04-25 16:55 | 47.62414 | -52.57679 | 4799 ft | 249 kts | 83° |
| 2026-04-25 16:55 | 47.62423 | -52.55137 | 5585 ft | 250 kts | 83° |
| 2026-04-25 16:55 | 47.62438 | -52.52544 | 6343 ft | 254 kts | 83° |
| 2026-04-25 16:55 | 47.62452 | -52.49895 | 7041 ft | 260 kts | 83° |
| 2026-04-25 16:56 | 47.62473 | -52.47193 | 7772 ft | 264 kts | 83° |
| 2026-04-25 16:56 | 47.62501 | -52.44448 | 8512 ft | 269 kts | 83° |
| 2026-04-25 16:56 | 47.62538 | -52.41658 | 9233 ft | 273 kts | 83° |
| 2026-04-25 16:56 | 47.62580 | -52.38814 | 9932 ft | 277 kts | 83° |
| 2026-04-25 16:57 | 47.62631 | -52.35921 | 10439 ft | 289 kts | 83° |
| 2026-04-25 16:57 | 47.62652 | -52.34906 | 10525 ft | 295 kts | 83° |
| 2026-04-25 16:57 | 47.62784 | -52.29589 | 10930 ft | 326 kts | 83° |
| 2026-04-25 16:57 | 47.62885 | -52.26146 | 11165 ft | 343 kts | 83° |
| 2026-04-25 16:58 | 47.63002 | -52.22498 | 11505 ft | 355 kts | 83° |
| 2026-04-25 16:58 | 47.63126 | -52.18812 | 12047 ft | 360 kts | 83° |
| 2026-04-25 16:58 | 47.63257 | -52.15096 | 12672 ft | 363 kts | 83° |
| 2026-04-25 16:58 | 47.63392 | -52.11392 | 13281 ft | 365 kts | 83° |
| 2026-04-25 16:59 | 47.63507 | -52.07625 | 13898 ft | 366 kts | 83° |
| 2026-04-25 16:59 | 47.63573 | -52.03837 | 14446 ft | 371 kts | 87° |
| 2026-04-25 16:59 | 47.63638 | -52.00018 | 14976 ft | 369 kts | 76° |
| 2026-04-25 16:59 | 47.64186 | -51.96314 | 15530 ft | 369 kts | 72° |
| 2026-04-25 17:00 | 47.64831 | -51.92625 | 16066 ft | 370 kts | 70° |
| 2026-04-25 17:00 | 47.65546 | -51.88943 | 16616 ft | 372 kts | 70° |
| 2026-04-25 17:00 | 47.66289 | -51.85253 | 17153 ft | 374 kts | 69° |
| 2026-04-25 17:00 | 47.67036 | -51.81541 | 17662 ft | 377 kts | 69° |
| 2026-04-25 17:01 | 47.67778 | -51.77793 | 18096 ft | 380 kts | 69° |
| 2026-04-25 17:01 | 47.68512 | -51.74018 | 18524 ft | 383 kts | 70° |
| 2026-04-25 17:01 | 47.69243 | -51.70209 | 18966 ft | 385 kts | 70° |
| 2026-04-25 17:01 | 47.69970 | -51.66373 | 19402 ft | 387 kts | 70° |
| 2026-04-25 17:02 | 47.70868 | -51.61608 | 19981 ft | 388 kts | 69° |
| 2026-04-25 17:02 | 47.76223 | -51.32697 | 23452 ft | 389 kts | 68° |
| 2026-04-25 17:02 | 47.82033 | -51.01286 | 25741 ft | 407 kts | 67° |
| 2026-04-25 17:02 | 47.83036 | -50.89086 | 24304 ft | 486 kts | 86° |
| 2026-04-25 17:03 | 47.82601 | -50.61205 | 26083 ft | 461 kts | 78° |
| 2026-04-25 17:03 | 47.84432 | -50.43663 | 27025 ft | 450 kts | 74° |
| 2026-04-25 17:03 | 47.84807 | -50.41199 | 26442 ft | 464 kts | 71° |
| 2026-04-25 17:03 | 47.85152 | -50.39277 | 27549 ft | 438 kts | 70° |
| 2026-04-25 17:04 | 47.85923 | -50.34969 | 28757 ft | 419 kts | 71° |
| 2026-04-25 17:04 | 47.86627 | -50.30950 | 30412 ft | 381 kts | 72° |
| 2026-04-25 17:04 | 47.87243 | -50.27348 | 32062 ft | 347 kts | 73° |
| 2026-04-25 17:04 | 47.87866 | -50.23696 | 29417 ft | 396 kts | 71° |
| 2026-04-25 17:05 | 47.88615 | -50.19365 | 26686 ft | 455 kts | 71° |
| 2026-04-25 17:05 | 47.89873 | -50.12013 | 26866 ft | 425 kts | 71° |
| 2026-04-25 17:05 | 47.90578 | -50.07817 | 27075 ft | 412 kts | 72° |
| 2026-04-25 17:06 | 47.91265 | -50.03691 | 27321 ft | 410 kts | 73° |
| 2026-04-25 17:06 | 47.91952 | -49.99541 | 27528 ft | 415 kts | 73° |
| 2026-04-25 17:06 | 47.92644 | -49.95346 | 27738 ft | 419 kts | 73° |
| 2026-04-25 17:06 | 47.93341 | -49.91108 | 27953 ft | 423 kts | 73° |
| 2026-04-25 17:07 | 47.94044 | -49.86827 | 28143 ft | 427 kts | 73° |
| 2026-04-25 17:07 | 47.94748 | -49.82519 | 28350 ft | 431 kts | 73° |
| 2026-04-25 17:07 | 47.96137 | -49.73942 | 27906 ft | 419 kts | 73° |
| 2026-04-25 17:08 | 47.96818 | -49.69694 | 27064 ft | 423 kts | 73° |
| 2026-04-25 17:08 | 47.97493 | -49.65498 | 26263 ft | 429 kts | 74° |
| 2026-04-25 17:08 | 47.98197 | -49.61122 | 25429 ft | 441 kts | 74° |
| 2026-04-25 17:08 | 47.98937 | -49.56546 | 24638 ft | 463 kts | 74° |
| 2026-04-25 17:09 | 47.99158 | -49.55182 | 24682 ft | 465 kts | 74° |
| 2026-04-25 17:09 | 47.99218 | -49.54814 | 24684 ft | 465 kts | 74° |
| 2026-04-25 17:09 | 47.99313 | -49.54227 | 24651 ft | 466 kts | 74° |
| 2026-04-25 17:09 | 47.99409 | -49.53638 | 24648 ft | 467 kts | 74° |
| 2026-04-25 17:10 | 47.99578 | -49.52594 | 24624 ft | 468 kts | 74° |
| 2026-04-25 17:10 | 48.00701 | -49.45622 | 24139 ft | 434 kts | 74° |
| 2026-04-25 17:10 | 48.01994 | -49.37392 | 24195 ft | 385 kts | 74° |
| 2026-04-25 17:10 | 48.03204 | -49.29608 | 24149 ft | 390 kts | 73° |
| 2026-04-25 17:11 | 48.05284 | -49.21957 | 24332 ft | 407 kts | 63° |
| 2026-04-25 17:11 | 48.07938 | -49.14329 | 24644 ft | 420 kts | 62° |
| 2026-04-25 17:11 | 48.10768 | -49.06564 | 25047 ft | 429 kts | 61° |
| 2026-04-25 17:11 | 48.13665 | -48.98723 | 25542 ft | 435 kts | 61° |
| 2026-04-25 17:12 | 48.16621 | -48.90700 | 26079 ft | 441 kts | 61° |
| 2026-04-25 17:12 | 48.19487 | -48.82881 | 26036 ft | 428 kts | 61° |
| 2026-04-25 17:12 | 48.22280 | -48.75231 | 27854 ft | 415 kts | 63° |
| 2026-04-25 17:12 | 48.24030 | -48.70418 | 27005 ft | 431 kts | 64° |
| 2026-04-25 17:13 | 48.25454 | -48.66497 | 26478 ft | 424 kts | 64° |
| 2026-04-25 17:13 | 48.26384 | -48.63941 | 26370 ft | 416 kts | 64° |
| 2026-04-25 17:13 | 48.28187 | -48.58983 | 26335 ft | 411 kts | 64° |
| 2026-04-25 17:13 | 48.29550 | -48.55213 | 25634 ft | 411 kts | 62° |
| 2026-04-25 17:14 | 48.30913 | -48.51442 | 26882 ft | 408 kts | 65° |
| 2026-04-25 17:14 | 48.32257 | -48.47721 | 27298 ft | 406 kts | 65° |
| 2026-04-25 17:14 | 48.33610 | -48.43963 | 27442 ft | 412 kts | 65° |
| 2026-04-25 17:14 | 48.34960 | -48.40206 | 27550 ft | 417 kts | 65° |
| 2026-04-25 17:15 | 48.36346 | -48.36340 | 27660 ft | 423 kts | 65° |
| 2026-04-25 17:15 | 48.37748 | -48.32430 | 27810 ft | 427 kts | 65° |
| 2026-04-25 17:15 | 48.39163 | -48.28480 | 28039 ft | 430 kts | 65° |
| 2026-04-25 17:15 | 48.40586 | -48.24507 | 28262 ft | 431 kts | 65° |
| 2026-04-25 17:16 | 48.43415 | -48.16597 | 28306 ft | 427 kts | 65° |
| 2026-04-25 17:16 | 48.46222 | -48.08718 | 28300 ft | 428 kts | 66° |
| 2026-04-25 17:17 | 48.49034 | -48.00791 | 28316 ft | 429 kts | 65° |